createdAt,value
2019-03-15T00:02:31.153Z,5.90
2019-03-15T00:07:35.225Z,6.04
2019-03-15T00:12:39.249Z,6.04
2019-03-15T00:17:43.595Z,5.85
2019-03-15T00:22:47.698Z,5.70
2019-03-15T00:27:52.077Z,5.66
2019-03-15T00:32:56.090Z,5.76
2019-03-15T00:38:00.400Z,5.82
2019-03-15T00:43:04.595Z,5.88
2019-03-15T00:48:08.736Z,5.90
2019-03-15T00:53:12.785Z,5.86
2019-03-15T00:58:16.838Z,5.92
2019-03-15T01:03:20.881Z,5.94
2019-03-15T01:08:24.910Z,5.88
2019-03-15T01:13:28.995Z,5.95
2019-03-15T01:18:33.000Z,5.92
2019-03-15T01:23:37.063Z,5.94
2019-03-15T01:28:41.138Z,5.92
2019-03-15T01:33:46.048Z,5.90
2019-03-15T01:38:50.072Z,5.94
2019-03-15T01:43:54.412Z,5.86
2019-03-15T01:48:58.687Z,5.93
2019-03-15T01:54:02.726Z,6.00
2019-03-15T01:59:06.867Z,5.97
2019-03-15T02:04:10.879Z,5.99
2019-03-15T02:09:14.888Z,6.10
2019-03-15T02:14:19.047Z,6.05
2019-03-15T02:19:23.120Z,5.96
2019-03-15T02:24:27.134Z,5.99
2019-03-15T02:29:31.235Z,5.87
2019-03-15T02:34:35.319Z,5.85
2019-03-15T02:39:39.453Z,5.82
2019-03-15T02:44:43.528Z,5.95
2019-03-15T02:49:47.921Z,5.97
2019-03-15T02:54:51.988Z,5.90
2019-03-15T02:59:56.075Z,5.84
2019-03-15T03:05:00.406Z,5.89
2019-03-15T03:10:04.868Z,5.81
2019-03-15T03:15:08.974Z,5.95
2019-03-15T03:20:12.988Z,5.99
2019-03-15T03:25:17.674Z,6.06
2019-03-15T03:30:21.795Z,6.01
2019-03-15T03:35:25.824Z,5.94
2019-03-15T03:40:30.214Z,5.98
2019-03-15T03:45:34.706Z,6.08
2019-03-15T03:50:38.699Z,6.15
2019-03-15T03:55:42.735Z,6.26
2019-03-15T04:00:47.519Z,6.21
2019-03-15T04:05:51.768Z,6.22
2019-03-15T04:10:55.791Z,6.24
2019-03-15T04:15:59.934Z,6.22
2019-03-15T04:21:03.977Z,6.11
2019-03-15T04:26:08.006Z,6.09
2019-03-15T04:31:12.000Z,6.03
2019-03-15T04:36:16.089Z,5.89
2019-03-15T04:41:20.153Z,5.82
2019-03-15T04:46:24.219Z,5.84
2019-03-15T04:51:28.232Z,5.82
2019-03-15T04:56:32.294Z,5.79
2019-03-15T05:01:36.384Z,5.70
2019-03-15T05:06:40.435Z,5.46
2019-03-15T05:11:44.565Z,5.50
2019-03-15T05:16:48.727Z,5.63
2019-03-15T05:21:52.757Z,5.66
2019-03-15T05:26:56.816Z,5.61
2019-03-15T05:32:01.025Z,5.78
2019-03-15T05:37:05.129Z,5.79
2019-03-15T05:42:09.134Z,5.87
2019-03-15T05:47:13.231Z,5.90
2019-03-15T05:52:17.275Z,5.96
2019-03-15T05:57:21.686Z,5.96
2019-03-15T06:02:25.716Z,6.10
2019-03-15T06:07:29.739Z,6.20
2019-03-15T06:12:34.316Z,6.26
2019-03-15T06:17:38.368Z,6.28
2019-03-15T06:22:42.502Z,6.37
2019-03-15T06:27:46.595Z,6.54
2019-03-15T06:32:50.774Z,6.53
2019-03-15T06:37:54.856Z,6.47
2019-03-15T06:42:58.944Z,6.51
2019-03-15T06:48:03.014Z,6.70
2019-03-15T06:53:07.197Z,6.72
2019-03-15T06:58:11.225Z,6.85
2019-03-15T07:03:22.378Z,6.91
2019-03-15T07:08:26.459Z,7.08
2019-03-15T07:13:30.492Z,7.20
2019-03-15T07:18:35.455Z,7.47
2019-03-15T07:23:40.234Z,7.59
2019-03-15T07:28:44.563Z,7.72
2019-03-15T07:33:49.639Z,7.76
2019-03-15T07:38:54.082Z,7.73
2019-03-15T07:43:58.110Z,7.96
2019-03-15T07:49:02.170Z,7.95
2019-03-15T07:54:07.278Z,7.75
2019-03-15T07:59:11.929Z,7.80
2019-03-15T08:04:17.485Z,7.85
2019-03-15T08:09:21.713Z,7.88
2019-03-15T08:14:25.727Z,7.83
2019-03-15T08:19:29.966Z,7.94
2019-03-15T08:24:36.569Z,8.21
2019-03-15T08:29:39.874Z,8.29
2019-03-15T08:34:43.858Z,8.20
2019-03-15T08:39:47.904Z,8.56
2019-03-15T08:44:52.044Z,8.55
2019-03-15T08:49:56.078Z,9.32
2019-03-15T08:55:05.215Z,9.57
2019-03-15T09:00:06.679Z,8.78
2019-03-15T09:05:10.774Z,8.52
2019-03-15T09:10:22.638Z,8.31
2019-03-15T09:15:20.636Z,8.70
2019-03-15T09:20:29.684Z,8.86
2019-03-15T09:25:30.431Z,9.05
2019-03-15T09:30:34.458Z,9.59
2019-03-15T09:35:39.984Z,9.51
2019-03-15T09:40:44.337Z,10.00
2019-03-15T09:45:48.361Z,10.45
2019-03-15T09:50:52.425Z,11.15
2019-03-15T09:55:56.515Z,11.17
2019-03-15T10:01:00.634Z,11.60
2019-03-15T10:06:15.115Z,12.25
2019-03-15T10:11:10.482Z,12.75
2019-03-15T10:16:14.552Z,12.14
2019-03-15T10:21:18.868Z,11.61
2019-03-15T10:26:22.940Z,11.21
2019-03-15T10:31:27.160Z,10.79
2019-03-15T10:36:31.128Z,10.37
2019-03-15T10:41:38.086Z,10.36
2019-03-15T10:46:41.005Z,10.16
2019-03-15T10:51:45.078Z,10.62
2019-03-15T10:56:49.127Z,10.57
2019-03-15T11:01:53.260Z,10.48
2019-03-15T11:06:57.318Z,10.69
2019-03-15T11:12:01.352Z,10.43
2019-03-15T11:17:05.634Z,10.50
2019-03-15T11:22:09.772Z,11.20
2019-03-15T11:27:14.072Z,11.90
2019-03-15T11:32:18.153Z,12.41
2019-03-15T11:37:22.515Z,12.37
2019-03-15T11:42:26.554Z,12.44
2019-03-15T11:47:45.990Z,12.66
2019-03-15T11:52:36.367Z,11.85
2019-03-15T11:57:40.380Z,12.06
2019-03-15T12:02:44.558Z,11.23
2019-03-15T12:07:48.674Z,10.41
2019-03-15T12:12:52.743Z,10.23
2019-03-15T12:17:56.741Z,10.22
2019-03-15T12:23:00.842Z,10.36
2019-03-15T12:28:04.930Z,10.01
2019-03-15T12:33:08.947Z,10.01
2019-03-15T12:38:12.990Z,10.39
2019-03-15T12:43:17.377Z,10.73
2019-03-15T12:48:21.736Z,10.77
2019-03-15T12:53:25.789Z,10.32
2019-03-15T12:58:30.082Z,10.74
2019-03-15T13:03:34.124Z,10.62
2019-03-15T13:08:38.222Z,10.32
2019-03-15T13:13:42.199Z,10.30
2019-03-15T13:18:46.593Z,10.03
2019-03-15T13:23:50.613Z,9.52
2019-03-15T13:28:54.933Z,9.52
2019-03-15T13:33:58.996Z,9.43
2019-03-15T13:39:04.284Z,9.39
2019-03-15T13:44:08.382Z,9.14
2019-03-15T13:49:12.453Z,9.01
2019-03-15T13:54:16.516Z,8.85
2019-03-15T13:59:20.602Z,8.84
2019-03-15T14:04:24.649Z,8.71
2019-03-15T14:09:28.662Z,8.53
2019-03-15T14:14:32.768Z,8.54
2019-03-15T14:19:36.829Z,8.58
2019-03-15T14:24:40.865Z,8.36
2019-03-15T14:29:44.987Z,8.16
2019-03-15T14:34:49.126Z,8.05
2019-03-15T14:39:55.206Z,7.98
2019-03-15T14:44:59.266Z,7.90
2019-03-15T14:50:03.532Z,7.83
2019-03-15T14:55:07.684Z,7.84
2019-03-15T15:00:12.328Z,7.78
2019-03-15T15:05:16.366Z,7.70
2019-03-15T15:10:20.712Z,7.75
2019-03-15T15:15:24.737Z,7.77
2019-03-15T15:20:28.791Z,7.90
2019-03-15T15:25:32.900Z,8.15
2019-03-15T15:30:36.971Z,8.45
2019-03-15T15:35:41.736Z,8.53
2019-03-15T15:40:45.777Z,8.59
2019-03-15T15:45:50.321Z,8.72
2019-03-15T15:50:55.609Z,8.74
2019-03-15T15:55:59.634Z,9.11
2019-03-15T16:01:03.753Z,9.42
2019-03-15T16:06:08.048Z,9.46
2019-03-15T16:11:12.378Z,9.58
2019-03-15T16:16:16.482Z,9.59
2019-03-15T16:21:20.852Z,9.54
2019-03-15T16:26:24.948Z,9.50
2019-03-15T16:31:29.094Z,9.39
2019-03-15T16:36:33.100Z,9.22
2019-03-15T16:41:37.867Z,9.25
2019-03-15T16:46:41.918Z,9.17
2019-03-15T16:51:46.104Z,9.13
2019-03-15T16:56:50.141Z,9.18
2019-03-15T17:01:54.580Z,9.21
2019-03-15T17:07:00.840Z,9.17
2019-03-15T17:12:04.398Z,9.21
2019-03-15T17:17:08.631Z,9.47
2019-03-15T17:22:12.750Z,9.72
2019-03-15T17:27:16.883Z,9.62
2019-03-15T17:32:20.966Z,9.97
2019-03-15T17:37:25.156Z,9.97
2019-03-15T17:42:29.232Z,10.11
2019-03-15T17:47:33.298Z,10.28
2019-03-15T17:52:37.338Z,10.12
2019-03-15T17:57:41.356Z,10.12
2019-03-15T18:02:47.033Z,9.99
2019-03-15T18:07:51.239Z,9.75
2019-03-15T18:12:55.616Z,9.75
2019-03-15T18:18:02.962Z,9.71
2019-03-15T18:23:07.397Z,9.46
2019-03-15T18:28:11.746Z,9.46
2019-03-15T18:33:16.158Z,9.43
2019-03-15T18:38:20.445Z,9.33
2019-03-15T18:43:24.698Z,9.37
2019-03-15T18:48:28.911Z,9.31
2019-03-15T18:53:34.681Z,9.29
2019-03-15T18:58:38.848Z,9.42
2019-03-15T19:03:43.650Z,9.57
2019-03-15T19:08:48.189Z,9.61
2019-03-15T19:13:53.329Z,9.59
2019-03-15T19:18:58.794Z,9.57
2019-03-15T19:24:03.223Z,9.56
2019-03-15T19:29:08.068Z,9.50
2019-03-15T19:34:13.090Z,9.25
2019-03-15T19:39:17.880Z,8.92
2019-03-15T19:44:23.011Z,8.71
2019-03-15T19:49:27.929Z,8.48
2019-03-15T19:54:32.219Z,8.45
2019-03-15T19:59:36.546Z,8.45
2019-03-15T20:04:40.990Z,8.34
2019-03-15T20:09:45.615Z,8.19
2019-03-15T20:14:49.693Z,8.25
2019-03-15T20:19:53.873Z,8.03
2019-03-15T20:24:57.943Z,8.05
2019-03-15T20:30:02.559Z,7.89
2019-03-15T20:35:06.700Z,7.89
2019-03-15T20:40:10.865Z,8.04
2019-03-15T20:45:15.284Z,7.87
2019-03-15T20:50:20.036Z,7.74
2019-03-15T20:55:24.539Z,7.52
2019-03-15T21:00:35.622Z,7.77
2019-03-15T21:05:34.649Z,7.72
2019-03-15T21:10:38.814Z,7.90
2019-03-15T21:15:42.936Z,7.78
2019-03-15T21:20:47.120Z,7.79
2019-03-15T21:25:51.235Z,7.78
2019-03-15T21:30:55.375Z,7.61
2019-03-15T21:35:59.514Z,7.52
2019-03-15T21:41:03.654Z,7.30
2019-03-15T21:46:08.041Z,7.43
2019-03-15T21:51:12.287Z,7.40
2019-03-15T21:56:16.434Z,7.42
2019-03-15T22:01:20.613Z,7.43
2019-03-15T22:06:24.712Z,7.39
2019-03-15T22:11:28.905Z,7.30
2019-03-15T22:16:33.538Z,7.23
2019-03-15T22:21:37.583Z,7.29
2019-03-15T22:26:41.697Z,7.14
2019-03-15T22:31:45.803Z,7.02
2019-03-15T22:36:49.922Z,7.16
2019-03-15T22:41:56.024Z,6.99
2019-03-15T22:47:00.089Z,6.94
2019-03-15T22:52:04.495Z,7.08
2019-03-15T22:57:08.554Z,6.96
2019-03-15T23:02:13.044Z,6.92
2019-03-15T23:07:17.115Z,7.02
2019-03-15T23:12:21.178Z,6.99
2019-03-15T23:17:25.342Z,6.82
2019-03-15T23:22:29.379Z,6.87
2019-03-15T23:27:33.631Z,6.88
2019-03-15T23:32:37.750Z,6.73
2019-03-15T23:37:41.857Z,6.71
2019-03-15T23:42:45.898Z,6.61
2019-03-15T23:47:50.082Z,6.72
2019-03-15T23:52:54.223Z,6.57
2019-03-15T23:57:58.598Z,6.72
